Time;durP1;ratioP1;P1;durP2;ratioP2;P2;SDS_P1;SDS_P2;PMS_P1;PMS_P2;Temp;Humidity;BMP_temperature;BMP_pressure;BME280_temperature;BME280_humidity;BME280_pressure;Samples;Min_cycle;Max_cycle;Signal;HPM_P1;HPM_P2
2021/12/03 00:02:03;;;;;;;7.90;2.60;;;2.60;99.90;;;;;;5086188;28;20040;-70
2021/12/03 00:04:29;;;;;;;7.93;2.22;;;2.60;99.90;;;;;;5088886;28;20083;-70
2021/12/03 00:06:55;;;;;;;5.70;2.65;;;2.60;99.90;;;;;;5088754;28;20483;-70
2021/12/03 00:09:21;;;;;;;7.05;2.50;;;2.50;99.90;;;;;;5030821;28;20119;-70
2021/12/03 00:11:47;;;;;;;6.93;2.80;;;2.50;99.90;;;;;;5064576;28;20032;-70
2021/12/03 00:14:13;;;;;;;7.63;2.10;;;2.50;99.90;;;;;;5070651;28;20126;-70
2021/12/03 00:16:38;;;;;;;4.43;2.10;;;2.50;99.90;;;;;;5086284;28;20491;-70
2021/12/03 00:19:04;;;;;;;5.70;2.25;;;2.40;99.90;;;;;;5057311;28;20036;-70
2021/12/03 00:21:30;;;;;;;5.25;2.13;;;2.40;99.90;;;;;;5070203;28;20101;-71
2021/12/03 00:23:55;;;;;;;8.35;2.33;;;2.30;99.90;;;;;;5071155;28;20131;-70
2021/12/03 00:26:22;;;;;;;6.18;2.15;;;2.40;99.90;;;;;;5070567;28;20404;-70
2021/12/03 00:28:47;;;;;;;5.40;2.28;;;2.40;99.90;;;;;;5071345;28;20037;-70
2021/12/03 00:31:14;;;;;;;7.55;2.67;;;2.30;99.90;;;;;;5088411;28;20063;-70
2021/12/03 00:33:40;;;;;;;8.27;2.40;;;2.40;99.90;;;;;;5075151;28;20117;-70
2021/12/03 00:36:08;;;;;;;7.07;2.22;;;2.40;99.90;;;;;;5043119;28;20070;-70
2021/12/03 00:38:46;;;;;;;7.93;2.20;;;2.40;99.90;;;;;;5089277;28;20052;-70
2021/12/03 00:41:17;;;;;;;4.82;2.40;;;2.40;99.90;;;;;;5070199;28;20055;-70
2021/12/03 00:43:46;;;;;;;5.85;2.83;;;2.40;99.90;;;;;;5073642;28;20398;-70
2021/12/03 00:46:14;;;;;;;5.95;2.13;;;2.40;99.90;;;;;;5069376;28;20057;-71
2021/12/03 00:48:40;;;;;;;4.65;2.20;;;2.40;99.90;;;;;;5069183;28;20063;-70
2021/12/03 00:51:08;;;;;;;8.10;2.30;;;2.40;99.90;;;;;;5067945;28;20048;-70
2021/12/03 00:53:35;;;;;;;6.72;2.30;;;2.30;99.90;;;;;;5050682;28;20053;-71
2021/12/03 00:56:01;;;;;;;6.00;2.20;;;2.30;99.90;;;;;;5033763;28;20223;-70
2021/12/03 00:58:27;;;;;;;5.55;2.08;;;2.40;99.90;;;;;;5067202;28;20044;-70
2021/12/03 01:00:53;;;;;;;4.95;2.22;;;2.30;99.90;;;;;;5060304;28;20035;-70
2021/12/03 01:03:19;;;;;;;6.88;2.10;;;2.30;99.90;;;;;;5065833;28;20139;-70
2021/12/03 01:05:44;;;;;;;7.82;2.53;;;2.30;99.90;;;;;;5067964;28;20115;-71
2021/12/03 01:08:10;;;;;;;5.40;2.67;;;2.30;99.90;;;;;;5068005;28;20158;-70
2021/12/03 01:10:36;;;;;;;4.80;2.25;;;2.30;99.90;;;;;;5067696;28;20147;-70
2021/12/03 01:13:02;;;;;;;7.68;2.20;;;2.30;99.90;;;;;;5068254;28;20051;-70
2021/12/03 01:15:31;;;;;;;7.22;2.90;;;2.30;99.90;;;;;;5066421;28;20040;-70
2021/12/03 01:17:57;;;;;;;5.57;2.20;;;2.30;99.90;;;;;;5060632;28;20068;-70
2021/12/03 01:20:23;;;;;;;4.80;2.50;;;2.30;99.90;;;;;;5067797;28;20515;-69
2021/12/03 01:22:51;;;;;;;8.15;2.53;;;2.20;99.90;;;;;;5062034;28;20083;-70
2021/12/03 01:25:18;;;;;;;5.07;2.47;;;2.20;99.90;;;;;;5067161;28;20496;-70
2021/12/03 01:27:44;;;;;;;6.88;2.45;;;2.30;99.90;;;;;;5068210;28;20072;-70
2021/12/03 01:30:12;;;;;;;5.45;2.20;;;2.20;99.90;;;;;;5067647;28;20555;-70
2021/12/03 01:32:39;;;;;;;5.88;2.38;;;2.20;99.90;;;;;;5050452;28;20120;-70
2021/12/03 01:35:06;;;;;;;8.50;2.58;;;2.10;99.90;;;;;;5058309;28;20481;-70
2021/12/03 01:37:32;;;;;;;6.35;2.30;;;2.10;99.90;;;;;;5067617;28;20061;-70
2021/12/03 01:39:57;;;;;;;6.40;2.38;;;2.10;99.90;;;;;;5070436;28;20041;-70
2021/12/03 01:42:23;;;;;;;5.03;2.33;;;2.00;99.90;;;;;;5072094;28;20072;-70
2021/12/03 01:44:49;;;;;;;6.07;2.25;;;2.00;99.90;;;;;;5070647;28;20543;-70
2021/12/03 01:47:15;;;;;;;8.48;2.60;;;3.00;99.90;;;;;;5069283;28;20048;-70
2021/12/03 01:49:40;;;;;;;6.30;2.17;;;2.00;99.90;;;;;;5070611;28;20048;-69
2021/12/03 01:52:07;;;;;;;5.03;2.03;;;2.00;99.90;;;;;;5083535;28;20135;-71
2021/12/03 01:54:32;;;;;;;6.65;2.90;;;2.00;99.90;;;;;;5091793;28;20150;-71
2021/12/03 01:56:58;;;;;;;5.00;2.22;;;2.00;99.90;;;;;;5067347;28;20040;-71
2021/12/03 01:59:24;;;;;;;6.10;2.13;;;2.00;99.90;;;;;;5066972;28;20063;-69
2021/12/03 02:01:49;;;;;;;5.75;2.22;;;2.10;99.90;;;;;;5082146;28;20036;-70
2021/12/03 02:04:15;;;;;;;4.80;2.13;;;2.00;99.90;;;;;;5072232;28;20131;-70
2021/12/03 02:06:41;;;;;;;10.55;2.70;;;2.10;99.90;;;;;;5091980;28;20117;-70
2021/12/03 02:09:07;;;;;;;5.97;2.28;;;1.60;99.90;;;;;;5074016;28;20032;-70
2021/12/03 02:11:34;;;;;;;5.97;2.15;;;2.10;99.90;;;;;;5085714;28;20055;-71
2021/12/03 02:14:00;;;;;;;4.63;2.08;;;2.20;99.90;;;;;;5071046;28;20044;-70
2021/12/03 02:16:26;;;;;;;8.43;2.47;;;2.10;99.90;;;;;;5039971;28;20059;-70
2021/12/03 02:18:52;;;;;;;5.68;2.50;;;2.10;99.90;;;;;;5053852;28;20040;-70
2021/12/03 02:21:20;;;;;;;4.57;2.10;;;2.20;99.90;;;;;;5073929;28;20111;-70
2021/12/03 02:23:46;;;;;;;8.73;2.28;;;2.20;99.90;;;;;;5091499;28;20032;-70
2021/12/03 02:26:13;;;;;;;3.42;2.05;;;3.20;99.90;;;;;;5091451;28;20123;-70
2021/12/03 02:28:45;;;;;;;5.75;2.30;;;2.20;99.90;;;;;;5054339;28;20061;-71
2021/12/03 02:31:13;;;;;;;7.43;2.50;;;2.20;99.90;;;;;;5087284;28;20062;-70
2021/12/03 02:33:39;;;;;;;4.50;2.13;;;2.20;99.90;;;;;;5062186;28;20087;-70
2021/12/03 02:36:06;;;;;;;5.45;2.28;;;2.20;99.90;;;;;;5072893;28;20378;-70
2021/12/03 02:38:32;;;;;;;6.03;2.63;;;2.20;99.90;;;;;;5055245;28;20056;-70
2021/12/03 02:40:58;;;;;;;5.93;2.28;;;2.30;99.90;;;;;;5071281;28;20072;-70
2021/12/03 02:43:24;;;;;;;7.38;2.45;;;2.30;99.90;;;;;;5051940;28;20147;-70
2021/12/03 02:45:51;;;;;;;5.55;2.35;;;2.30;99.90;;;;;;5060011;28;20493;-70
2021/12/03 02:48:18;;;;;;;7.65;2.45;;;2.30;99.90;;;;;;5059028;28;20048;-70
2021/12/03 02:50:44;;;;;;;3.92;1.92;;;2.30;99.90;;;;;;5087977;28;20032;-71
2021/12/03 02:53:09;;;;;;;8.55;2.70;;;2.30;99.90;;;;;;5074740;28;20397;-70
2021/12/03 02:55:35;;;;;;;6.53;2.35;;;2.30;99.90;;;;;;5054396;28;20469;-70
2021/12/03 02:58:02;;;;;;;6.43;2.00;;;2.30;99.90;;;;;;5069991;28;20417;-70
2021/12/03 03:00:29;;;;;;;7.47;2.85;;;2.40;99.90;;;;;;5067783;28;20055;-71
2021/12/03 03:02:56;;;;;;;9.85;2.38;;;2.40;99.90;;;;;;5067713;28;20040;-70
2021/12/03 03:05:23;;;;;;;7.55;2.80;;;2.40;99.90;;;;;;5069829;28;20083;-70
2021/12/03 03:07:49;;;;;;;7.60;3.13;;;2.40;99.90;;;;;;5072517;28;20051;-70
2021/12/03 03:10:18;;;;;;;10.52;3.58;;;2.40;99.90;;;;;;5051013;28;20044;-70
2021/12/03 03:12:45;;;;;;;7.95;4.00;;;2.40;99.90;;;;;;5052906;28;20510;-70
2021/12/03 03:15:12;;;;;;;8.48;3.90;;;2.30;99.90;;;;;;5070197;28;20432;-70
2021/12/03 03:17:39;;;;;;;11.48;4.97;;;2.40;99.90;;;;;;5066885;28;20055;-69
2021/12/03 03:20:06;;;;;;;10.18;4.85;;;2.40;99.90;;;;;;5070811;28;20075;-70
2021/12/03 03:22:34;;;;;;;10.07;5.18;;;2.40;99.90;;;;;;5069040;28;20128;-70
2021/12/03 03:25:00;;;;;;;16.75;6.28;;;2.40;99.90;;;;;;5052820;28;20155;-70
2021/12/03 03:27:28;;;;;;;11.40;6.43;;;2.40;99.90;;;;;;5061382;28;20123;-70
2021/12/03 03:29:53;;;;;;;13.75;6.82;;;2.40;99.90;;;;;;5066744;28;20161;-70
2021/12/03 03:32:21;;;;;;;14.77;7.65;;;2.10;99.90;;;;;;5067458;28;20150;-69
2021/12/03 03:34:47;;;;;;;15.70;8.07;;;2.30;99.90;;;;;;5069935;28;20068;-70
2021/12/03 03:37:13;;;;;;;12.23;8.55;;;2.30;99.90;;;;;;5069725;28;20400;-71
2021/12/03 03:39:40;;;;;;;16.75;10.48;;;3.50;99.90;;;;;;5070754;28;20049;-70
2021/12/03 03:42:06;;;;;;;16.13;10.07;;;2.30;99.90;;;;;;5069881;28;20350;-70
2021/12/03 03:44:33;;;;;;;17.73;11.57;;;2.30;99.90;;;;;;5069161;28;20041;-70
2021/12/03 03:47:00;;;;;;;20.65;12.30;;;2.40;99.90;;;;;;5068346;28;20052;-71
2021/12/03 03:49:27;;;;;;;19.10;12.73;;;2.40;99.90;;;;;;5069261;28;20052;-71
2021/12/03 03:51:52;;;;;;;24.42;13.73;;;2.40;99.90;;;;;;5079896;28;20056;-70
2021/12/03 03:54:18;;;;;;;24.30;15.55;;;2.30;99.90;;;;;;5073202;28;20046;-70
2021/12/03 03:56:46;;;;;;;23.83;15.50;;;3.40;99.90;;;;;;5082046;28;20096;-70
2021/12/03 03:59:11;;;;;;;23.42;16.40;;;2.30;99.90;;;;;;5076896;28;20053;-71
2021/12/03 04:01:37;;;;;;;26.42;16.55;;;2.30;99.90;;;;;;5061951;28;20456;-70
2021/12/03 04:04:03;;;;;;;26.75;18.02;;;2.30;99.90;;;;;;5030992;28;20077;-70
2021/12/03 04:06:29;;;;;;;25.67;17.58;;;2.30;99.90;;;;;;5058599;28;20091;-70
2021/12/03 04:08:55;;;;;;;27.88;17.77;;;2.30;99.90;;;;;;5052070;28;20084;-70
2021/12/03 04:11:23;;;;;;;27.48;18.30;;;2.40;99.90;;;;;;5051056;28;20052;-71
2021/12/03 04:13:49;;;;;;;27.23;18.17;;;2.30;99.90;;;;;;5068612;28;20045;-71
2021/12/03 04:16:16;;;;;;;26.45;18.48;;;2.30;99.90;;;;;;5070669;28;20210;-71
2021/12/03 04:18:42;;;;;;;27.92;18.13;;;2.30;99.90;;;;;;5078687;28;20445;-70
2021/12/03 04:21:07;;;;;;;26.15;17.98;;;2.30;99.90;;;;;;5090037;28;20047;-71
2021/12/03 04:23:33;;;;;;;23.15;18.20;;;2.30;99.90;;;;;;5089690;28;20090;-71
2021/12/03 04:25:59;;;;;;;25.88;17.83;;;2.30;99.90;;;;;;5088844;28;20582;-71
2021/12/03 04:28:25;;;;;;;24.88;17.60;;;2.30;99.90;;;;;;5065666;28;20047;-71
2021/12/03 04:30:51;;;;;;;27.55;18.08;;;2.30;99.90;;;;;;5052591;28;20055;-70
2021/12/03 04:33:17;;;;;;;26.25;17.48;;;2.30;99.90;;;;;;5036260;28;20047;-71
2021/12/03 04:35:43;;;;;;;27.67;17.55;;;2.30;99.90;;;;;;5068909;28;20435;-71
2021/12/03 04:38:09;;;;;;;25.15;16.85;;;3.80;99.90;;;;;;5048548;28;20056;-70
2021/12/03 04:40:36;;;;;;;25.08;17.25;;;2.30;99.90;;;;;;5063175;28;20040;-71
2021/12/03 04:43:02;;;;;;;25.15;16.65;;;2.30;99.90;;;;;;5089024;28;20056;-70
2021/12/03 04:45:29;;;;;;;20.95;16.85;;;2.30;99.90;;;;;;5078228;28;20484;-71
2021/12/03 04:47:57;;;;;;;23.02;16.35;;;2.20;99.90;;;;;;5087824;28;20048;-70
2021/12/03 04:50:25;;;;;;;22.83;16.63;;;2.30;99.90;;;;;;5086524;28;20040;-71
2021/12/03 04:52:52;;;;;;;22.23;15.65;;;2.30;99.90;;;;;;5054112;28;20194;-71
2021/12/03 04:55:18;;;;;;;21.63;15.55;;;2.30;99.90;;;;;;5069804;28;20331;-70
2021/12/03 04:57:44;;;;;;;21.75;15.70;;;2.30;99.90;;;;;;5065524;28;20040;-71
2021/12/03 05:00:17;;;;;;;21.02;15.48;;;2.20;99.90;;;;;;5068230;28;20563;-71
2021/12/03 05:02:44;;;;;;;24.35;16.75;;;1.90;99.90;;;;;;5065858;28;20054;-71
2021/12/03 05:05:09;;;;;;;23.92;16.23;;;2.20;99.90;;;;;;5088197;28;20048;-71
2021/12/03 05:10:05;;;;;;;21.08;15.85;;;2.20;99.90;;;;;;5088544;28;20416;-71
2021/12/03 05:12:30;;;;;;;20.63;15.13;;;2.20;99.90;;;;;;5056484;28;20072;-70
2021/12/03 05:14:56;;;;;;;21.17;15.35;;;2.20;99.90;;;;;;5067980;28;20044;-70
2021/12/03 05:17:21;;;;;;;21.67;15.07;;;2.20;99.90;;;;;;5071441;28;20223;-70
2021/12/03 05:19:47;;;;;;;19.67;14.00;;;2.20;99.90;;;;;;5076996;28;20460;-70
2021/12/03 05:22:13;;;;;;;20.55;14.57;;;2.20;99.90;;;;;;5087759;28;20488;-69
2021/12/03 05:24:40;;;;;;;21.63;14.20;;;2.20;99.90;;;;;;5088957;28;20118;-70
2021/12/03 05:27:06;;;;;;;20.20;14.93;;;2.20;99.90;;;;;;5069477;28;20039;-70
2021/12/03 05:29:33;;;;;;;19.58;14.50;;;2.20;99.90;;;;;;5086469;28;20137;-70
2021/12/03 05:31:58;;;;;;;17.50;13.75;;;2.20;99.90;;;;;;5069212;28;20044;-71
2021/12/03 05:34:24;;;;;;;19.20;13.38;;;2.20;99.90;;;;;;5086814;28;20047;-70
2021/12/03 05:36:50;;;;;;;21.58;13.85;;;2.20;99.90;;;;;;5046755;28;20048;-70
2021/12/03 05:39:16;;;;;;;20.02;14.05;;;2.20;99.90;;;;;;5073021;28;20093;-71
2021/12/03 05:41:42;;;;;;;16.58;13.40;;;2.20;99.90;;;;;;5067731;28;20036;-71
2021/12/03 05:44:08;;;;;;;20.90;13.43;;;2.20;99.90;;;;;;5067647;28;20473;-71
2021/12/03 05:46:33;;;;;;;18.45;12.98;;;2.20;99.90;;;;;;5049671;28;20064;-70
2021/12/03 05:48:59;;;;;;;18.38;13.10;;;2.20;99.90;;;;;;5084877;28;20520;-71
2021/12/03 05:51:26;;;;;;;18.05;13.70;;;2.20;99.90;;;;;;5087499;28;20048;-70
2021/12/03 05:53:52;;;;;;;18.92;13.50;;;2.10;99.90;;;;;;5069808;28;20113;-70
2021/12/03 05:56:18;;;;;;;19.27;13.30;;;2.10;99.90;;;;;;5079155;28;20040;-70
2021/12/03 05:58:44;;;;;;;20.27;13.73;;;2.20;99.90;;;;;;5066567;28;20032;-70
2021/12/03 06:01:10;;;;;;;18.80;13.82;;;2.10;99.90;;;;;;5085298;28;20396;-70
2021/12/03 06:03:36;;;;;;;18.55;13.43;;;2.10;99.90;;;;;;5068817;28;20051;-70
2021/12/03 06:06:02;;;;;;;19.63;13.52;;;2.10;99.90;;;;;;5085663;28;20188;-70
2021/12/03 06:08:27;;;;;;;20.90;12.93;;;2.20;99.90;;;;;;5079832;28;20043;-70
2021/12/03 06:10:53;;;;;;;17.05;13.48;;;2.20;99.90;;;;;;5081089;28;20041;-70
2021/12/03 06:13:19;;;;;;;20.08;13.95;;;2.20;99.90;;;;;;5066193;28;20041;-71
2021/12/03 06:15:44;;;;;;;19.67;13.90;;;2.20;99.90;;;;;;5066894;28;20091;-70
2021/12/03 06:18:10;;;;;;;18.63;14.02;;;2.20;99.90;;;;;;5065754;28;20063;-70
2021/12/03 06:20:36;;;;;;;19.05;13.73;;;2.20;99.90;;;;;;5050274;28;20565;-70
2021/12/03 06:23:02;;;;;;;17.75;13.88;;;2.20;99.90;;;;;;5068406;28;20551;-71
2021/12/03 06:25:28;;;;;;;20.63;14.20;;;2.30;99.90;;;;;;5061318;28;20479;-70
2021/12/03 06:27:58;;;;;;;23.38;14.55;;;2.30;99.90;;;;;;5055995;28;20044;-70
2021/12/03 06:30:24;;;;;;;21.55;14.55;;;2.30;99.90;;;;;;5087512;28;20431;-71
2021/12/03 06:32:51;;;;;;;20.90;15.68;;;2.30;99.90;;;;;;5053410;28;20087;-70
2021/12/03 06:35:17;;;;;;;23.40;14.77;;;2.40;99.90;;;;;;5065655;28;20408;-71
2021/12/03 06:37:44;;;;;;;19.38;14.55;;;2.40;99.90;;;;;;5071404;28;20048;-70
2021/12/03 06:40:13;;;;;;;19.80;13.77;;;2.40;99.90;;;;;;5069539;28;20397;-70
2021/12/03 06:42:39;;;;;;;18.80;14.23;;;2.50;99.90;;;;;;5069822;28;20052;-70
2021/12/03 06:45:06;;;;;;;18.80;14.23;;;2.50;99.90;;;;;;5065069;28;20324;-71
2021/12/03 06:47:32;;;;;;;18.58;14.68;;;2.50;99.90;;;;;;5063967;28;20052;-71
2021/12/03 06:49:58;;;;;;;17.98;14.07;;;2.50;99.90;;;;;;5072725;28;20048;-72
2021/12/03 06:52:24;;;;;;;20.52;13.75;;;2.60;99.90;;;;;;5090275;28;20066;-71
2021/12/03 06:54:59;;;;;;;23.55;13.88;;;2.60;99.90;;;;;;5090397;28;20044;-70
2021/12/03 06:57:25;;;;;;;19.58;13.13;;;2.60;99.90;;;;;;5072123;28;20396;-70
2021/12/03 06:59:51;;;;;;;22.08;13.65;;;2.70;99.90;;;;;;5072215;28;20059;-70
2021/12/03 07:02:16;;;;;;;22.35;14.15;;;2.70;99.90;;;;;;5070648;28;20484;-71
2021/12/03 07:04:44;;;;;;;20.80;12.70;;;2.80;99.90;;;;;;5089115;28;20189;-70
2021/12/03 07:07:10;;;;;;;15.27;12.43;;;2.70;99.90;;;;;;5090676;28;20044;-71
2021/12/03 07:09:35;;;;;;;20.58;11.95;;;2.70;99.90;;;;;;5072046;28;20468;-71
2021/12/03 07:12:01;;;;;;;19.40;11.82;;;2.70;99.90;;;;;;5090795;28;20051;-71
2021/12/03 07:14:27;;;;;;;17.05;12.02;;;2.70;99.90;;;;;;5088958;28;20044;-71
2021/12/03 07:16:53;;;;;;;16.67;11.07;;;2.70;99.90;;;;;;5090598;28;20139;-71
2021/12/03 07:19:18;;;;;;;16.83;10.95;;;2.70;99.90;;;;;;5050443;28;20068;-71
2021/12/03 07:21:44;;;;;;;16.75;11.45;;;4.20;99.90;;;;;;5049536;28;20044;-71
2021/12/03 07:24:10;;;;;;;17.27;11.18;;;2.70;99.90;;;;;;5071850;28;20560;-71
2021/12/03 07:26:35;;;;;;;14.98;10.82;;;2.70;99.90;;;;;;5069499;28;20053;-71
2021/12/03 07:29:01;;;;;;;18.83;10.15;;;2.80;99.90;;;;;;5052113;28;20167;-71
2021/12/03 07:31:27;;;;;;;15.50;10.13;;;2.80;99.90;;;;;;5062440;28;20093;-71
2021/12/03 07:33:54;;;;;;;17.15;9.82;;;2.80;99.90;;;;;;5071159;28;20097;-71
2021/12/03 07:36:20;;;;;;;14.95;9.73;;;2.80;99.90;;;;;;5069806;28;20589;-71
2021/12/03 07:38:46;;;;;;;15.13;9.02;;;2.80;99.90;;;;;;5055224;28;20045;-71
2021/12/03 07:41:12;;;;;;;13.82;9.02;;;2.90;99.90;;;;;;5080666;28;20338;-71
2021/12/03 07:43:37;;;;;;;15.23;8.88;;;2.90;99.90;;;;;;5079051;28;20451;-71
2021/12/03 07:46:03;;;;;;;14.20;8.65;;;2.90;99.90;;;;;;5068176;28;20515;-71
2021/12/03 07:48:30;;;;;;;13.88;8.48;;;2.90;99.90;;;;;;5066783;28;20048;-71
2021/12/03 07:50:57;;;;;;;11.68;7.72;;;2.90;99.90;;;;;;5067410;28;20214;-71
2021/12/03 07:53:24;;;;;;;14.43;7.65;;;2.80;99.90;;;;;;5034797;28;20055;-73
2021/12/03 07:55:52;;;;;;;15.70;7.60;;;2.90;99.90;;;;;;5065652;28;20144;-70
2021/12/03 07:58:18;;;;;;;13.38;7.05;;;2.90;99.90;;;;;;5050459;28;20134;-71
2021/12/03 08:00:45;;;;;;;12.95;6.85;;;3.00;99.90;;;;;;5068853;28;20074;-70
2021/12/03 08:03:12;;;;;;;12.55;6.32;;;3.00;99.90;;;;;;5067985;28;20401;-71
2021/12/03 08:05:39;;;;;;;10.50;6.40;;;3.00;99.90;;;;;;5053486;28;20083;-70
2021/12/03 08:08:05;;;;;;;13.27;6.00;;;2.90;99.90;;;;;;5050936;28;20088;-71
2021/12/03 08:10:34;;;;;;;13.45;5.95;;;3.00;99.90;;;;;;5069014;28;20048;-70
2021/12/03 08:13:00;;;;;;;13.45;6.07;;;3.00;99.90;;;;;;5068516;28;20413;-71
2021/12/03 08:15:26;;;;;;;8.43;5.80;;;3.00;99.90;;;;;;5068250;28;20041;-70
2021/12/03 08:17:52;;;;;;;10.73;5.82;;;3.10;99.90;;;;;;5050027;28;20102;-71
2021/12/03 08:20:18;;;;;;;12.90;5.90;;;3.10;99.90;;;;;;5068078;28;20043;-71
2021/12/03 08:22:44;;;;;;;15.18;5.88;;;3.10;99.90;;;;;;5070039;28;20392;-71
2021/12/03 08:25:11;;;;;;;9.50;5.32;;;3.10;99.90;;;;;;5055515;28;20036;-71
2021/12/03 08:27:38;;;;;;;12.00;5.65;;;3.10;99.90;;;;;;5068190;28;20044;-71
2021/12/03 08:30:05;;;;;;;13.98;5.05;;;3.20;99.90;;;;;;5068126;28;20055;-71
2021/12/03 08:32:32;;;;;;;14.40;5.82;;;3.20;99.90;;;;;;5047673;28;20105;-71
2021/12/03 08:34:58;;;;;;;11.90;5.28;;;3.30;99.90;;;;;;5071276;28;20086;-71
2021/12/03 08:37:24;;;;;;;10.93;5.13;;;3.30;99.90;;;;;;5069796;28;20097;-72
2021/12/03 08:39:50;;;;;;;9.73;5.05;;;3.30;99.90;;;;;;5068262;28;20438;-71
2021/12/03 08:42:17;;;;;;;9.00;5.47;;;3.40;99.90;;;;;;5068910;28;20086;-71
2021/12/03 08:44:43;;;;;;;10.90;5.57;;;3.40;99.90;;;;;;5069206;28;20040;-70
2021/12/03 08:47:08;;;;;;;14.57;5.90;;;3.50;99.90;;;;;;5041958;28;20040;-71
2021/12/03 08:49:38;;;;;;;11.45;5.65;;;3.50;99.90;;;;;;5067650;28;20489;-72
2021/12/03 08:57:35;;;;;;;11.95;5.90;;;3.60;99.90;;;;;;5005908;28;20097;-72
2021/12/03 09:00:12;;;;;;;12.48;6.32;;;3.60;99.90;;;;;;5053330;28;20207;-72
2021/12/03 09:02:39;;;;;;;14.07;6.53;;;3.60;99.90;;;;;;5057208;28;20089;-73
2021/12/03 09:05:05;;;;;;;17.52;6.15;;;3.60;99.90;;;;;;5066506;28;20059;-72
2021/12/03 09:07:31;;;;;;;14.82;5.95;;;3.60;99.90;;;;;;5067019;28;20052;-72
2021/12/03 09:09:57;;;;;;;12.32;6.72;;;3.60;99.90;;;;;;5034083;28;20484;-72
2021/12/03 09:12:23;;;;;;;12.25;6.38;;;3.70;99.90;;;;;;5067643;28;20116;-72
2021/12/03 09:14:55;;;;;;;12.43;7.00;;;3.70;99.90;;;;;;5067355;28;20112;-71
2021/12/03 09:17:52;;;;;;;13.23;8.05;;;4.20;99.90;;;;;;5064525;28;20128;-72
2021/12/03 09:22:59;;;;;;;17.83;8.90;;;3.60;99.90;;;;;;5055275;28;19924;-71
2021/12/03 09:25:37;;;;;;;21.13;9.57;;;3.60;99.90;;;;;;5067452;28;20048;-72
2021/12/03 09:28:05;;;;;;;17.73;8.60;;;3.60;99.90;;;;;;5067611;28;20049;-73
2021/12/03 09:30:35;;;;;;;18.83;9.90;;;3.70;99.90;;;;;;5065469;28;20086;-72
2021/12/03 09:33:03;;;;;;;15.55;9.90;;;5.20;99.90;;;;;;5067707;28;20041;-72
2021/12/03 09:35:30;;;;;;;22.02;10.13;;;3.60;99.90;;;;;;5066460;28;20105;-71
2021/12/03 09:37:56;;;;;;;21.38;11.30;;;3.70;99.90;;;;;;5068558;28;20094;-71
2021/12/03 09:40:24;;;;;;;17.83;10.30;;;3.70;99.90;;;;;;5068169;28;20508;-71
2021/12/03 09:42:50;;;;;;;21.50;11.77;;;3.70;99.90;;;;;;5071668;28;20064;-71
2021/12/03 09:45:16;;;;;;;19.25;11.65;;;3.70;99.90;;;;;;5068819;28;20397;-72
2021/12/03 09:47:42;;;;;;;19.40;9.90;;;3.30;99.90;;;;;;5067002;28;20040;-71
2021/12/03 09:50:17;;;;;;;20.63;11.90;;;4.00;99.90;;;;;;5067607;28;20507;-71
2021/12/03 09:55:13;;;;;;;20.00;11.00;;;3.90;99.90;;;;;;5067496;28;20052;-72
2021/12/03 09:58:08;;;;;;;20.77;11.45;;;3.90;99.90;;;;;;5048051;28;20366;-72
2021/12/03 10:00:39;;;;;;;24.75;12.70;;;3.90;99.90;;;;;;5054106;28;20055;-71
2021/12/03 10:13:48;;;;;;;18.50;11.15;;;3.90;99.90;;;;;;5052698;28;20060;-72
2021/12/03 10:25:21;;;;;;;19.60;11.05;;;4.20;99.90;;;;;;5047923;28;20504;-71
2021/12/03 10:30:08;;;;;;;20.48;9.75;;;4.20;99.90;;;;;;5068938;28;20426;-71
2021/12/03 10:54:38;;;;;;;23.98;8.75;;;4.20;99.90;;;;;;5031397;28;20382;-72
2021/12/03 11:03:17;;;;;;;15.25;7.25;;;4.30;99.90;;;;;;5049714;28;20053;-70
2021/12/03 11:06:09;;;;;;;13.90;7.32;;;4.30;99.90;;;;;;5049779;28;20556;-71
2021/12/03 11:16:46;;;;;;;18.50;6.78;;;4.30;99.90;;;;;;5048625;28;20045;-72
2021/12/03 11:19:53;;;;;;;18.23;6.88;;;4.30;99.90;;;;;;5029113;28;20057;-71
2021/12/03 11:30:21;;;;;;;15.25;6.78;;;4.20;99.90;;;;;;5032300;28;20520;-71
2021/12/03 11:38:54;;;;;;;18.83;6.10;;;3.90;99.90;;;;;;5038042;28;20488;-70
2021/12/03 11:53:36;;;;;;;16.95;6.18;;;3.90;99.90;;;;;;5056673;28;20056;-71
2021/12/03 12:27:14;;;;;;;13.27;5.43;;;3.90;99.90;;;;;;5065810;28;20116;-72
2021/12/03 12:44:29;;;;;;;15.68;6.10;;;3.90;99.90;;;;;;5055758;28;20508;-72
2021/12/03 13:03:53;;;;;;;13.80;7.20;;;3.90;99.90;;;;;;5062962;28;20098;-70
2021/12/03 13:14:01;;;;;;;15.57;8.63;;;3.70;99.90;;;;;;5064299;28;20058;-70
2021/12/03 13:31:48;;;;;;;17.08;7.82;;;3.70;99.90;;;;;;5027243;28;20049;-71
2021/12/03 14:01:28;;;;;;;12.95;6.00;;;4.20;99.90;;;;;;5049219;28;20472;-72
2021/12/03 14:39:04;;;;;;;10.40;5.13;;;4.50;99.90;;;;;;5065765;28;20121;-72
2021/12/03 14:44:41;;;;;;;10.43;5.35;;;4.50;99.90;;;;;;5066342;28;20053;-72
2021/12/03 14:52:38;;;;;;;9.18;5.25;;;4.60;99.90;;;;;;5048983;28;20525;-72
2021/12/03 14:55:08;;;;;;;9.05;5.25;;;4.60;99.90;;;;;;5049118;28;20045;-72
2021/12/03 14:57:44;;;;;;;11.43;5.20;;;4.60;99.90;;;;;;5032351;28;20207;-71
2021/12/03 15:03:04;;;;;;;11.45;6.00;;;4.60;99.90;;;;;;5050773;28;20489;-73
2021/12/03 15:08:07;;;;;;;10.05;5.90;;;4.60;99.90;;;;;;5065883;28;20044;-73
2021/12/03 15:32:42;;;;;;;13.18;7.82;;;4.60;99.90;;;;;;5059203;28;20544;-72
2021/12/03 15:57:11;;;;;;;14.57;12.27;;;4.30;99.90;;;;;;5066556;28;20040;-73
2021/12/03 16:10:14;;;;;;;18.70;14.25;;;4.30;99.90;;;;;;5061251;28;20139;-72
2021/12/03 16:12:50;;;;;;;18.50;14.93;;;4.30;99.90;;;;;;5049629;28;20158;-72
2021/12/03 16:26:22;;;;;;;20.85;15.23;;;4.30;99.90;;;;;;5048661;28;20109;-72
2021/12/03 16:53:23;;;;;;;23.83;18.90;;;4.40;99.90;;;;;;5066967;28;20522;-73
2021/12/03 16:56:05;;;;;;;22.60;18.45;;;4.40;99.90;;;;;;5064682;28;20053;-70
2021/12/03 16:58:33;;;;;;;25.83;18.85;;;4.30;99.90;;;;;;5051531;28;20538;-68
2021/12/03 17:01:08;;;;;;;26.00;18.95;;;4.30;99.90;;;;;;5063670;28;20394;-68
2021/12/03 17:03:43;;;;;;;46.20;30.38;;;4.30;99.90;;;;;;5064533;28;20052;-68
2021/12/03 17:48:47;;;;;;;29.60;19.38;;;4.60;99.90;;;;;;5066721;28;20101;-70
2021/12/03 17:54:25;;;;;;;26.73;19.42;;;4.50;99.90;;;;;;5070935;28;20053;-69
2021/12/03 17:56:53;;;;;;;29.85;19.48;;;4.50;99.90;;;;;;5063743;28;20146;-70
2021/12/03 17:59:22;;;;;;;27.90;20.05;;;4.50;99.90;;;;;;5067861;28;20121;-71
2021/12/03 18:04:24;;;;;;;30.52;21.00;;;4.40;99.90;;;;;;5066417;28;20048;-70
2021/12/03 18:07:03;;;;;;;32.70;20.90;;;4.50;99.90;;;;;;5068199;28;20052;-70
2021/12/03 18:15:18;;;;;;;30.27;20.45;;;4.50;99.90;;;;;;5068258;28;20068;-70
2021/12/03 18:45:47;;;;;;;35.78;21.90;;;4.50;99.90;;;;;;5069889;28;20048;-70
2021/12/03 18:47:56;;;;;;;37.45;22.63;;;4.50;99.90;;;;;;5058124;28;20052;-70
2021/12/03 18:55:56;;;;;;;40.92;23.85;;;4.50;99.90;;;;;;5016790;28;20057;-69
2021/12/03 18:58:26;;;;;;;37.33;22.02;;;4.50;99.90;;;;;;5027429;28;20088;-67
2021/12/03 19:00:54;;;;;;;37.38;23.67;;;4.60;99.90;;;;;;5052015;28;20049;-67
2021/12/03 19:03:28;;;;;;;39.60;24.48;;;4.50;99.90;;;;;;5050075;28;20079;-67
2021/12/03 19:08:56;;;;;;;38.97;23.27;;;4.60;99.90;;;;;;5033236;28;20519;-67
2021/12/03 19:11:25;;;;;;;40.20;23.88;;;4.60;99.90;;;;;;5066285;28;20037;-67
2021/12/03 19:13:52;;;;;;;39.58;24.20;;;4.60;99.90;;;;;;5066435;28;20055;-67
2021/12/03 19:16:21;;;;;;;39.58;24.40;;;4.60;99.90;;;;;;5065648;28;20052;-67
2021/12/03 19:18:49;;;;;;;39.90;24.85;;;5.60;99.90;;;;;;5066838;28;20069;-67
2021/12/03 19:21:23;;;;;;;37.00;22.05;;;4.60;99.90;;;;;;5066574;28;20045;-67
2021/12/03 19:23:58;;;;;;;40.67;23.80;;;4.60;99.90;;;;;;5061136;28;20055;-67
2021/12/03 19:26:25;;;;;;;43.20;24.63;;;4.60;99.90;;;;;;5028293;28;20044;-67
2021/12/03 19:28:52;;;;;;;40.13;23.88;;;4.60;99.90;;;;;;5047875;28;20187;-67
2021/12/03 19:31:21;;;;;;;49.35;27.27;;;4.60;99.90;;;;;;5048980;28;20171;-67
2021/12/03 19:33:47;;;;;;;44.50;25.77;;;4.60;99.90;;;;;;5044446;28;20430;-67
2021/12/03 19:36:20;;;;;;;46.90;28.35;;;4.60;99.90;;;;;;5046642;28;20041;-67
2021/12/03 19:38:47;;;;;;;48.80;28.05;;;4.70;99.90;;;;;;5046341;28;20371;-66
2021/12/03 19:41:42;;;;;;;46.72;27.55;;;4.70;99.90;;;;;;5058640;28;20753;-67
2021/12/03 19:44:01;;;;;;;48.65;28.55;;;4.70;99.90;;;;;;5065201;28;20464;-69
2021/12/03 19:46:33;;;;;;;46.63;28.38;;;4.70;99.90;;;;;;5063502;28;20079;-68
2021/12/03 19:51:33;;;;;;;50.83;28.50;;;4.70;99.90;;;;;;5070278;28;20469;-67
2021/12/03 19:53:59;;;;;;;48.67;29.38;;;4.70;99.90;;;;;;5053972;28;20094;-67
2021/12/03 19:56:31;;;;;;;52.30;29.50;;;4.70;99.90;;;;;;5051495;28;20087;-67
2021/12/03 19:58:58;;;;;;;51.30;30.33;;;4.70;99.90;;;;;;5046557;28;20448;-67
2021/12/03 20:01:28;;;;;;;47.15;28.08;;;4.80;99.90;;;;;;5044704;28;20128;-67
2021/12/03 20:03:54;;;;;;;49.13;29.55;;;4.80;99.90;;;;;;5045926;28;20163;-67
2021/12/03 20:06:22;;;;;;;50.58;29.60;;;4.80;99.90;;;;;;5045723;28;20144;-67
2021/12/03 20:08:54;;;;;;;50.92;29.98;;;4.80;99.90;;;;;;5067780;28;20066;-67
2021/12/03 20:11:25;;;;;;;52.92;29.90;;;4.80;99.90;;;;;;5086368;28;20056;-67